Time;durP1;ratioP1;P1;durP2;ratioP2;P2;SDS_P1;SDS_P2;PMS_P1;PMS_P2;Temp;Humidity;BMP_temperature;BMP_pressure;BME280_temperature;BME280_humidity;BME280_pressure;Samples;Min_cycle;Max_cycle;Signal;HPM_P1;HPM_P2
2023/12/29 00:02:04;;;;;;;;;10.00;9.00;;;;;;;;5093993;28;29181;-82
2023/12/29 00:04:30;;;;;;;;;5.67;2.33;;;;;;;;5092704;28;28590;-83
2023/12/29 00:06:55;;;;;;;;;6.00;4.67;;;;;;;;5074139;28;28717;-79
2023/12/29 00:09:21;;;;;;;;;6.00;3.33;;;;;;;;5092064;28;28903;-82
2023/12/29 00:11:47;;;;;;;;;2.67;2.33;;;;;;;;5073801;28;30131;-85
2023/12/29 00:14:12;;;;;;;;;8.67;3.00;;;;;;;;5072560;28;28939;-82
2023/12/29 00:16:37;;;;;;;;;3.00;1.33;;;;;;;;5081908;28;28511;-83
2023/12/29 00:19:03;;;;;;;;;2.67;1.33;;;;;;;;5090768;28;28728;-82
2023/12/29 00:21:28;;;;;;;;;37.00;31.00;;;;;;;;5084038;28;28747;-83
2023/12/29 00:23:53;;;;;;;;;23.33;20.33;;;;;;;;5083104;28;28473;-83
2023/12/29 00:26:18;;;;;;;;;8.67;7.00;;;;;;;;5077588;28;28724;-82
2023/12/29 00:28:45;;;;;;;;;2.67;2.33;;;;;;;;5090183;28;28600;-82
2023/12/29 00:31:16;;;;;;;;;3.00;3.00;;;;;;;;5078709;28;28818;-81
2023/12/29 00:33:42;;;;;;;;;3.67;3.33;;;;;;;;5083730;28;28575;-82
2023/12/29 00:36:07;;;;;;;;;5.00;1.00;;;;;;;;5063901;28;28658;-81
2023/12/29 00:38:34;;;;;;;;;5.00;2.00;;;;;;;;5090496;28;28495;-80
2023/12/29 00:40:59;;;;;;;;;6.67;3.00;;;;;;;;5072771;28;31275;-81
2023/12/29 00:43:24;;;;;;;;;3.33;1.00;;;;;;;;5089839;28;28523;-82
2023/12/29 00:45:50;;;;;;;;;5.00;2.67;;;;;;;;5090246;28;28402;-82
2023/12/29 00:48:15;;;;;;;;;3.33;2.33;;;;;;;;5071331;28;29382;-81
2023/12/29 00:50:43;;;;;;;;;8.00;4.00;;;;;;;;5090521;28;30045;-80
2023/12/29 00:53:09;;;;;;;;;6.00;2.00;;;;;;;;5089826;28;28865;-82
2023/12/29 00:55:34;;;;;;;;;7.33;3.67;;;;;;;;5083854;28;28426;-82
2023/12/29 00:57:59;;;;;;;;;6.00;1.67;;;;;;;;5090220;28;28758;-82
2023/12/29 01:00:25;;;;;;;;;5.67;3.33;;;;;;;;5071157;28;29185;-82
2023/12/29 01:02:50;;;;;;;;;3.00;3.00;;;;;;;;5072015;28;29171;-82
2023/12/29 01:05:17;;;;;;;;;4.00;2.67;;;;;;;;5071583;28;28614;-81
2023/12/29 01:07:42;;;;;;;;;6.33;6.33;;;;;;;;5055528;28;28913;-83
2023/12/29 01:10:07;;;;;;;;;6.67;3.00;;;;;;;;5075642;28;29255;-81
2023/12/29 01:12:33;;;;;;;;;3.67;2.67;;;;;;;;5089648;28;28497;-81
2023/12/29 01:14:58;;;;;;;;;3.00;0.67;;;;;;;;5076611;28;28498;-82
2023/12/29 01:17:23;;;;;;;;;6.00;3.00;;;;;;;;5085935;28;28536;-82
2023/12/29 01:19:48;;;;;;;;;7.00;2.67;;;;;;;;5089602;28;28514;-80
2023/12/29 01:22:13;;;;;;;;;5.00;5.00;;;;;;;;5090222;28;28496;-81
2023/12/29 01:24:39;;;;;;;;;5.67;3.00;;;;;;;;5092614;28;28520;-82
2023/12/29 01:27:05;;;;;;;;;4.33;2.67;;;;;;;;5074408;28;28573;-81
2023/12/29 01:29:30;;;;;;;;;1.00;0.67;;;;;;;;5094051;28;29149;-83
2023/12/29 01:31:55;;;;;;;;;5.67;2.00;;;;;;;;5094127;28;28816;-82
2023/12/29 01:34:20;;;;;;;;;4.00;2.33;;;;;;;;5099284;28;28782;-82
2023/12/29 01:36:46;;;;;;;;;1.67;1.67;;;;;;;;5097312;28;28857;-82
2023/12/29 01:39:11;;;;;;;;;3.33;3.00;;;;;;;;5096119;28;28403;-82
2023/12/29 01:41:36;;;;;;;;;11.67;8.67;;;;;;;;5086109;28;28407;-80
2023/12/29 01:44:01;;;;;;;;;4.00;2.33;;;;;;;;5092684;28;28751;-81
2023/12/29 01:46:31;;;;;;;;;5.67;2.67;;;;;;;;5074921;28;28634;-79
2023/12/29 01:48:57;;;;;;;;;2.67;1.33;;;;;;;;5076199;28;30059;-81
2023/12/29 01:51:24;;;;;;;;;7.33;3.00;;;;;;;;5095809;28;29550;-82
2023/12/29 01:53:50;;;;;;;;;2.00;1.33;;;;;;;;5094491;28;29551;-80
2023/12/29 01:56:16;;;;;;;;;1.67;1.67;;;;;;;;5098684;28;28445;-81
2023/12/29 01:58:41;;;;;;;;;3.67;3.67;;;;;;;;5092840;28;28507;-80
2023/12/29 02:01:07;;;;;;;;;3.00;1.67;;;;;;;;5088634;28;28519;-79
2023/12/29 02:03:32;;;;;;;;;0.33;0.33;;;;;;;;5098729;28;27964;-79
2023/12/29 02:05:58;;;;;;;;;5.67;3.67;;;;;;;;5094692;28;28837;-79
2023/12/29 02:08:23;;;;;;;;;3.00;2.33;;;;;;;;5092579;28;28841;-79
2023/12/29 02:10:49;;;;;;;;;4.67;1.00;;;;;;;;5095487;28;28531;-80
2023/12/29 02:13:14;;;;;;;;;4.00;3.00;;;;;;;;5095913;28;28469;-79
2023/12/29 02:15:39;;;;;;;;;2.00;2.00;;;;;;;;5094621;28;28952;-79
2023/12/29 02:18:06;;;;;;;;;1.33;1.00;;;;;;;;5095427;28;29141;-79
2023/12/29 02:20:31;;;;;;;;;3.00;3.00;;;;;;;;5093529;28;28442;-80
2023/12/29 02:22:57;;;;;;;;;2.33;2.33;;;;;;;;5083818;28;28428;-80
2023/12/29 02:25:22;;;;;;;;;3.00;2.67;;;;;;;;5077598;28;28675;-81
2023/12/29 02:27:59;;;;;;;;;3.67;3.00;;;;;;;;5072609;28;29959;-81
2023/12/29 02:30:43;;;;;;;;;5.33;2.67;;;;;;;;5090537;28;28886;-80
2023/12/29 02:33:10;;;;;;;;;8.00;2.67;;;;;;;;5100107;28;28429;-79
2023/12/29 02:35:43;;;;;;;;;3.67;2.00;;;;;;;;5064803;28;28512;-81
2023/12/29 02:38:08;;;;;;;;;3.67;3.00;;;;;;;;5082057;28;28281;-79
2023/12/29 02:40:33;;;;;;;;;2.67;1.00;;;;;;;;5089936;28;28898;-79
2023/12/29 02:42:59;;;;;;;;;2.33;2.33;;;;;;;;5073921;28;28442;-80
2023/12/29 02:45:24;;;;;;;;;5.67;3.67;;;;;;;;5086758;28;29367;-80
2023/12/29 02:47:50;;;;;;;;;3.67;2.67;;;;;;;;5089294;28;30105;-80
2023/12/29 02:50:15;;;;;;;;;4.00;1.67;;;;;;;;5105171;28;28273;-80
2023/12/29 02:52:40;;;;;;;;;6.33;1.67;;;;;;;;5100422;28;28810;-80
2023/12/29 02:55:06;;;;;;;;;2.67;1.67;;;;;;;;5095074;28;28190;-81
2023/12/29 02:57:31;;;;;;;;;2.67;1.00;;;;;;;;5115447;27;28238;-81
2023/12/29 02:59:56;;;;;;;;;21.00;7.67;;;;;;;;5114805;28;27776;-80
2023/12/29 03:02:22;;;;;;;;;4.00;0.67;;;;;;;;5112792;28;28782;-80
2023/12/29 03:04:47;;;;;;;;;2.00;2.00;;;;;;;;5112751;27;28674;-80
2023/12/29 03:07:12;;;;;;;;;7.00;2.00;;;;;;;;5103082;28;29284;-81
2023/12/29 03:09:38;;;;;;;;;3.67;1.67;;;;;;;;5096013;28;27823;-81
2023/12/29 03:12:03;;;;;;;;;6.67;3.00;;;;;;;;5104439;28;28188;-81
2023/12/29 03:14:29;;;;;;;;;5.67;2.33;;;;;;;;5096300;28;27976;-81
2023/12/29 03:16:54;;;;;;;;;4.00;2.00;;;;;;;;5075127;28;29731;-80
2023/12/29 03:19:19;;;;;;;;;8.33;4.00;;;;;;;;5098773;28;28167;-80
2023/12/29 03:21:44;;;;;;;;;5.00;1.67;;;;;;;;5088944;28;28630;-83
2023/12/29 03:24:10;;;;;;;;;2.33;1.67;;;;;;;;5114351;27;28225;-80
2023/12/29 03:26:35;;;;;;;;;3.00;1.67;;;;;;;;5095055;28;29699;-81
2023/12/29 03:29:00;;;;;;;;;3.33;0.00;;;;;;;;5108315;28;27823;-80
2023/12/29 03:31:26;;;;;;;;;9.33;3.00;;;;;;;;5109544;28;27844;-82
2023/12/29 03:33:51;;;;;;;;;1.33;0.67;;;;;;;;5106577;28;28454;-81
2023/12/29 03:36:16;;;;;;;;;8.33;4.67;;;;;;;;5095055;28;28037;-79
2023/12/29 03:38:44;;;;;;;;;3.33;2.00;;;;;;;;5076001;28;28626;-81
2023/12/29 03:41:09;;;;;;;;;7.33;1.00;;;;;;;;5091443;28;28554;-79
2023/12/29 03:43:34;;;;;;;;;3.33;2.67;;;;;;;;5072631;28;30023;-79
2023/12/29 03:45:59;;;;;;;;;3.00;1.33;;;;;;;;5091903;28;29284;-80
2023/12/29 03:48:25;;;;;;;;;4.67;2.67;;;;;;;;5091543;28;28491;-78
2023/12/29 03:50:50;;;;;;;;;3.33;2.00;;;;;;;;5092867;28;28810;-78
2023/12/29 03:53:15;;;;;;;;;1.33;1.33;;;;;;;;5059572;28;30231;-79
2023/12/29 03:55:41;;;;;;;;;7.67;1.00;;;;;;;;5071302;28;29886;-78
2023/12/29 03:58:06;;;;;;;;;3.00;2.00;;;;;;;;5089451;28;28525;-79
2023/12/29 04:00:31;;;;;;;;;5.33;2.00;;;;;;;;5088898;28;29069;-79
2023/12/29 04:02:57;;;;;;;;;3.33;1.33;;;;;;;;5071306;28;29299;-79
2023/12/29 04:05:22;;;;;;;;;6.00;2.33;;;;;;;;5090029;28;28879;-80
2023/12/29 04:07:47;;;;;;;;;3.33;2.00;;;;;;;;5091768;28;28312;-81
2023/12/29 04:10:12;;;;;;;;;1.67;1.67;;;;;;;;5070715;28;28910;-81
2023/12/29 04:12:38;;;;;;;;;1.67;0.67;;;;;;;;5079045;28;28900;-80
2023/12/29 04:15:03;;;;;;;;;2.67;2.00;;;;;;;;5061543;28;28563;-80
2023/12/29 04:17:29;;;;;;;;;4.00;1.33;;;;;;;;5074008;28;28385;-79
2023/12/29 04:19:54;;;;;;;;;1.67;0.00;;;;;;;;5091663;28;28712;-80
2023/12/29 04:22:19;;;;;;;;;2.00;1.00;;;;;;;;5083643;28;28925;-80
2023/12/29 04:24:44;;;;;;;;;1.00;1.00;;;;;;;;5065583;28;30067;-80
2023/12/29 04:27:10;;;;;;;;;1.00;1.00;;;;;;;;5072049;28;28443;-80
2023/12/29 04:29:35;;;;;;;;;2.00;2.00;;;;;;;;5090919;28;28370;-80
2023/12/29 04:32:00;;;;;;;;;1.00;1.00;;;;;;;;5072569;28;28741;-79
2023/12/29 04:34:25;;;;;;;;;2.67;1.67;;;;;;;;5080470;28;29306;-80
2023/12/29 04:36:50;;;;;;;;;3.00;1.33;;;;;;;;5063812;28;28442;-79
2023/12/29 04:39:16;;;;;;;;;2.00;0.00;;;;;;;;5090146;28;28043;-80
2023/12/29 04:41:41;;;;;;;;;5.00;2.00;;;;;;;;5072098;28;28608;-79
2023/12/29 04:44:06;;;;;;;;;4.33;1.67;;;;;;;;5088798;28;28651;-79
2023/12/29 04:46:31;;;;;;;;;1.00;1.00;;;;;;;;5065060;28;28776;-80
2023/12/29 04:48:56;;;;;;;;;1.00;1.00;;;;;;;;5079938;28;28644;-80
2023/12/29 04:51:22;;;;;;;;;5.67;2.00;;;;;;;;5086954;28;28959;-82
2023/12/29 04:53:47;;;;;;;;;5.67;1.67;;;;;;;;5078045;28;28707;-80
2023/12/29 04:56:12;;;;;;;;;3.33;0.00;;;;;;;;5080272;28;29548;-81
2023/12/29 04:58:37;;;;;;;;;3.67;3.00;;;;;;;;5091556;28;28479;-81
2023/12/29 05:01:03;;;;;;;;;1.00;1.00;;;;;;;;5090975;28;28397;-81
2023/12/29 05:03:28;;;;;;;;;4.00;1.00;;;;;;;;5094476;28;28561;-80
2023/12/29 05:05:54;;;;;;;;;1.33;1.00;;;;;;;;5094888;28;28600;-81
2023/12/29 05:08:19;;;;;;;;;2.00;2.00;;;;;;;;5091277;28;28492;-81
2023/12/29 05:10:44;;;;;;;;;3.00;2.00;;;;;;;;5089253;28;28499;-80
2023/12/29 05:13:10;;;;;;;;;1.00;1.00;;;;;;;;5089178;28;29025;-80
2023/12/29 05:15:35;;;;;;;;;2.00;2.00;;;;;;;;5088737;28;28472;-80
2023/12/29 05:18:01;;;;;;;;;3.67;1.67;;;;;;;;5071283;28;28892;-80
2023/12/29 05:20:26;;;;;;;;;1.00;1.00;;;;;;;;5071656;28;29552;-81
2023/12/29 05:22:51;;;;;;;;;5.33;1.00;;;;;;;;5088947;28;28502;-81
2023/12/29 05:25:16;;;;;;;;;1.00;1.00;;;;;;;;5058531;28;28586;-81
2023/12/29 05:27:42;;;;;;;;;3.00;1.00;;;;;;;;5089041;28;28464;-83
2023/12/29 05:30:07;;;;;;;;;3.33;2.67;;;;;;;;5068282;28;29497;-80
2023/12/29 05:32:32;;;;;;;;;2.00;2.00;;;;;;;;5089835;28;28859;-79
2023/12/29 05:34:57;;;;;;;;;1.00;1.00;;;;;;;;5089661;28;28642;-80
2023/12/29 05:37:22;;;;;;;;;2.67;0.00;;;;;;;;5085890;28;28547;-81
2023/12/29 05:39:48;;;;;;;;;1.67;1.33;;;;;;;;5086828;28;28871;-78
2023/12/29 05:42:13;;;;;;;;;1.00;1.00;;;;;;;;5091337;28;29874;-80
2023/12/29 05:44:38;;;;;;;;;2.33;2.33;;;;;;;;5089067;28;28755;-80
2023/12/29 05:47:04;;;;;;;;;2.50;1.00;;;;;;;;5068456;28;28518;-81
2023/12/29 05:49:30;;;;;;;;;2.00;1.00;;;;;;;;5085690;28;28442;-81
2023/12/29 05:51:55;;;;;;;;;1.67;1.33;;;;;;;;5088434;28;28523;-81
2023/12/29 05:54:20;;;;;;;;;4.00;1.00;;;;;;;;5070124;28;28417;-80
2023/12/29 05:56:45;;;;;;;;;1.67;1.00;;;;;;;;5080151;28;28572;-82
2023/12/29 05:59:11;;;;;;;;;3.00;0.00;;;;;;;;5088382;28;28381;-81
2023/12/29 06:01:36;;;;;;;;;3.00;3.00;;;;;;;;5087425;28;28633;-81
2023/12/29 06:04:01;;;;;;;;;3.00;0.00;;;;;;;;5084998;28;28665;-82
2023/12/29 06:06:26;;;;;;;;;8.00;2.00;;;;;;;;5087652;28;28424;-82
2023/12/29 06:08:52;;;;;;;;;1.67;0.67;;;;;;;;5067073;28;28774;-81
2023/12/29 06:11:17;;;;;;;;;7.33;2.00;;;;;;;;5087114;28;29648;-80
2023/12/29 06:13:42;;;;;;;;;1.00;1.00;;;;;;;;5071584;28;28617;-80
2023/12/29 06:16:09;;;;;;;;;3.00;2.00;;;;;;;;5067657;28;28772;-79
2023/12/29 06:18:34;;;;;;;;;3.00;0.00;;;;;;;;5072357;28;28559;-82
2023/12/29 06:21:01;;;;;;;;;3.00;0.67;;;;;;;;5068968;28;30214;-80
2023/12/29 06:23:26;;;;;;;;;5.67;2.00;;;;;;;;5089098;28;28398;-81
2023/12/29 06:25:51;;;;;;;;;1.00;1.00;;;;;;;;5091852;28;28718;-81
2023/12/29 06:28:17;;;;;;;;;1.00;1.00;;;;;;;;5088216;28;28613;-81
2023/12/29 06:30:42;;;;;;;;;1.00;1.00;;;;;;;;5080871;28;28440;-81
2023/12/29 06:33:07;;;;;;;;;3.00;1.00;;;;;;;;5070043;28;29252;-81
2023/12/29 06:35:33;;;;;;;;;2.00;1.00;;;;;;;;5086638;28;28849;-82
2023/12/29 06:37:58;;;;;;;;;4.00;1.00;;;;;;;;5090943;28;28719;-80
2023/12/29 06:40:23;;;;;;;;;2.00;2.00;;;;;;;;5068914;28;29467;-81
2023/12/29 06:42:48;;;;;;;;;1.00;1.00;;;;;;;;5088019;28;28627;-83
2023/12/29 06:45:14;;;;;;;;;1.67;1.33;;;;;;;;5058500;28;28518;-80
2023/12/29 06:47:39;;;;;;;;;1.00;1.00;;;;;;;;5089354;28;28512;-79
2023/12/29 06:50:06;;;;;;;;;8.00;1.00;;;;;;;;5094469;28;28589;-81
2023/12/29 06:52:33;;;;;;;;;0.00;0.00;;;;;;;;5079085;28;27910;-81
2023/12/29 06:54:59;;;;;;;;;0.00;0.00;;;;;;;;5062460;28;28510;-79
2023/12/29 06:57:25;;;;;;;;;1.00;0.00;;;;;;;;5084461;28;28960;-79
2023/12/29 06:59:50;;;;;;;;;2.00;1.00;;;;;;;;5069218;28;30869;-77
2023/12/29 07:02:15;;;;;;;;;4.67;1.00;;;;;;;;5092093;28;28555;-81
2023/12/29 07:04:42;;;;;;;;;1.00;0.00;;;;;;;;5082821;28;28779;-80
2023/12/29 07:07:07;;;;;;;;;1.67;0.67;;;;;;;;5064295;28;29102;-81
2023/12/29 07:09:33;;;;;;;;;0.00;0.00;;;;;;;;5085641;28;28523;-80
2023/12/29 07:11:59;;;;;;;;;3.33;2.00;;;;;;;;5061754;28;29667;-81
2023/12/29 07:14:24;;;;;;;;;4.33;1.67;;;;;;;;5082121;28;28745;-79
2023/12/29 07:16:49;;;;;;;;;1.67;1.67;;;;;;;;5064093;28;29496;-79
2023/12/29 07:19:15;;;;;;;;;3.00;1.00;;;;;;;;5064144;28;31443;-81
2023/12/29 07:21:41;;;;;;;;;1.00;0.00;;;;;;;;5083476;28;28456;-76
2023/12/29 07:24:12;;;;;;;;;0.33;0.00;;;;;;;;5083866;28;28511;-79
2023/12/29 07:26:37;;;;;;;;;1.00;1.00;;;;;;;;5076296;28;28556;-82
2023/12/29 07:29:03;;;;;;;;;0.00;0.00;;;;;;;;5058088;28;29678;-78
2023/12/29 07:31:29;;;;;;;;;2.00;2.00;;;;;;;;5079258;28;28599;-76
2023/12/29 07:33:54;;;;;;;;;1.67;1.00;;;;;;;;5077520;28;28842;-76
2023/12/29 07:36:20;;;;;;;;;2.00;0.33;;;;;;;;5083827;28;28684;-76
2023/12/29 07:38:45;;;;;;;;;1.00;1.00;;;;;;;;5082410;28;29519;-80
2023/12/29 07:41:11;;;;;;;;;2.00;1.00;;;;;;;;5055199;28;28465;-80
2023/12/29 07:43:36;;;;;;;;;5.67;1.33;;;;;;;;5066713;28;28526;-80
2023/12/29 07:46:02;;;;;;;;;1.00;1.00;;;;;;;;5066112;28;30051;-80
2023/12/29 07:48:28;;;;;;;;;3.00;0.33;;;;;;;;5059718;28;31327;-83
2023/12/29 07:50:58;;;;;;;;;0.67;0.67;;;;;;;;5084687;28;28572;-81
2023/12/29 07:53:23;;;;;;;;;3.00;0.67;;;;;;;;5069657;28;28438;-79
2023/12/29 07:55:53;;;;;;;;;2.00;0.33;;;;;;;;5069751;28;29581;-81
2023/12/29 07:58:18;;;;;;;;;1.67;0.67;;;;;;;;5088677;28;29478;-83
2023/12/29 08:00:43;;;;;;;;;3.00;1.67;;;;;;;;5077030;28;28638;-80
2023/12/29 08:03:11;;;;;;;;;0.33;0.33;;;;;;;;5093566;28;28464;-84
2023/12/29 08:05:41;;;;;;;;;0.00;0.00;;;;;;;;5080994;28;29237;-90
2023/12/29 08:08:07;;;;;;;;;1.33;0.00;;;;;;;;5087080;28;28609;-85
2023/12/29 08:10:32;;;;;;;;;4.67;1.33;;;;;;;;5079884;28;28610;-84
2023/12/29 08:13:01;;;;;;;;;0.33;0.33;;;;;;;;5098930;27;29026;-85
2023/12/29 08:15:26;;;;;;;;;1.00;0.67;;;;;;;;5075667;28;29493;-84
2023/12/29 08:17:51;;;;;;;;;2.00;1.00;;;;;;;;5073878;28;29789;-84
2023/12/29 08:20:59;;;;;;;;;1.00;0.33;;;;;;;;5083091;28;28697;-86
2023/12/29 08:23:34;;;;;;;;;1.67;0.67;;;;;;;;5066239;28;28550;-85
2023/12/29 08:26:00;;;;;;;;;3.33;0.00;;;;;;;;5092737;28;28452;-88
2023/12/29 08:28:45;;;;;;;;;1.67;0.33;;;;;;;;5085934;28;28117;-85
2023/12/29 08:33:57;;;;;;;;;3.00;1.00;;;;;;;;5044549;28;28775;-82
2023/12/29 08:42:46;;;;;;;;;;;;;;;;;;;;;
2023/12/29 08:45:12;;;;;;;;;5.00;2.00;;;;;;;;5082222;28;55166;-83
2023/12/29 08:47:46;;;;;;;;;2.00;1.00;;;;;;;;5073543;28;30625;-87
2023/12/29 08:50:21;;;;;;;;;0.67;0.67;;;;;;;;5069119;28;31043;-89
2023/12/29 08:52:56;;;;;;;;;0.00;0.00;;;;;;;;5073083;28;28493;-87
2023/12/29 08:55:45;;;;;;;;;2.67;1.67;;;;;;;;5098626;28;28798;-87
2023/12/29 08:58:30;;;;;;;;;5.00;0.67;;;;;;;;5086717;28;28650;-85
2023/12/29 09:04:43;;;;;;;;;2.50;1.00;;;;;;;;5033583;28;28520;-86
2023/12/29 09:07:07;;;;;;;;;2.00;1.00;;;;;;;;5039129;28;28553;-85
2023/12/29 09:09:35;;;;;;;;;1.67;0.00;;;;;;;;5038072;28;29671;-87
2023/12/29 09:12:01;;;;;;;;;1.00;0.00;;;;;;;;5046892;28;29643;-86
2023/12/29 09:14:29;;;;;;;;;1.50;0.50;;;;;;;;5074056;28;28905;-87
2023/12/29 09:16:55;;;;;;;;;2.00;0.00;;;;;;;;5096039;28;28288;-84
2023/12/29 09:19:23;;;;;;;;;3.00;1.00;;;;;;;;5098002;28;28695;-87
2023/12/29 09:21:55;;;;;;;;;0.67;0.00;;;;;;;;5097778;28;28054;-87
2023/12/29 09:24:20;;;;;;;;;4.00;2.50;;;;;;;;5074821;28;28595;-86
2023/12/29 09:26:46;;;;;;;;;1.00;1.00;;;;;;;;5080815;28;28549;-86
2023/12/29 09:29:11;;;;;;;;;3.00;1.33;;;;;;;;5081265;28;28993;-89
2023/12/29 09:31:38;;;;;;;;;2.00;0.67;;;;;;;;5099205;28;28169;-87
2023/12/29 09:34:03;;;;;;;;;4.75;2.00;;;;;;;;5098252;28;28637;-86
2023/12/29 09:36:28;;;;;;;;;1.00;1.00;;;;;;;;5082800;28;27978;-83
2023/12/29 09:38:53;;;;;;;;;2.33;1.33;;;;;;;;5072158;28;30763;-84
2023/12/29 09:41:20;;;;;;;;;1.00;1.00;;;;;;;;5086950;28;28443;-87
2023/12/29 09:43:49;;;;;;;;;1.75;1.00;;;;;;;;5094450;28;29821;-87
2023/12/29 09:46:17;;;;;;;;;3.00;1.00;;;;;;;;5082235;28;28398;-87
2023/12/29 09:48:45;;;;;;;;;1.00;0.00;;;;;;;;5066180;28;29245;-86
2023/12/29 09:51:11;;;;;;;;;0.00;0.00;;;;;;;;5080267;28;28688;-86
2023/12/29 09:53:37;;;;;;;;;1.00;0.00;;;;;;;;5080114;28;28664;-86
2023/12/29 09:56:03;;;;;;;;;1.67;0.33;;;;;;;;5094183;28;28530;-87
2023/12/29 09:58:32;;;;;;;;;2.00;1.00;;;;;;;;5088274;28;29054;-85
2023/12/29 10:00:57;;;;;;;;;5.33;1.00;;;;;;;;5072406;28;29126;-84
2023/12/29 10:03:23;;;;;;;;;1.50;0.00;;;;;;;;5088580;28;28673;-87
2023/12/29 10:05:50;;;;;;;;;0.67;0.67;;;;;;;;5073978;28;28980;-86
2023/12/29 10:08:16;;;;;;;;;4.50;0.00;;;;;;;;5065109;28;29458;-87
2023/12/29 10:11:00;;;;;;;;;3.33;1.00;;;;;;;;5080827;28;28690;-86
2023/12/29 10:13:29;;;;;;;;;2.25;0.00;;;;;;;;5089532;28;28738;-91
2023/12/29 10:16:03;;;;;;;;;1.50;0.75;;;;;;;;5058849;28;28685;-83
2023/12/29 10:18:38;;;;;;;;;3.40;0.80;;;;;;;;5075918;28;28878;-86
2023/12/29 10:21:03;;;;;;;;;2.40;1.00;;;;;;;;5086007;28;28846;-86
2023/12/29 10:23:36;;;;;;;;;1.00;1.00;;;;;;;;5066152;28;29275;-86
2023/12/29 10:26:01;;;;;;;;;2.00;1.00;;;;;;;;5093218;28;28842;-86
2023/12/29 10:28:27;;;;;;;;;0.00;0.00;;;;;;;;5076247;28;29182;-87
2023/12/29 10:30:52;;;;;;;;;1.00;0.00;;;;;;;;5085450;28;28024;-86
2023/12/29 10:33:26;;;;;;;;;1.00;1.00;;;;;;;;5077952;28;28431;-86
2023/12/29 10:36:03;;;;;;;;;1.25;1.25;;;;;;;;5088297;28;28493;-86
2023/12/29 10:38:29;;;;;;;;;3.60;0.80;;;;;;;;5099088;28;28955;-85
2023/12/29 10:40:54;;;;;;;;;1.00;1.00;;;;;;;;5095947;28;29158;-86
2023/12/29 10:43:23;;;;;;;;;3.33;1.67;;;;;;;;5089849;28;28565;-87
2023/12/29 10:45:48;;;;;;;;;2.00;0.00;;;;;;;;5097611;28;28913;-86
2023/12/29 10:52:01;;;;;;;;;;;;;;;;;;;;;
2023/12/29 10:55:25;;;;;;;;;1.00;1.00;;;;;;;;5101251;28;57623;-91
2023/12/29 10:58:32;;;;;;;;;0.75;0.00;;;;;;;;5080591;28;27958;-89
2023/12/29 11:01:32;;;;;;;;;4.00;1.00;;;;;;;;5035351;28;28650;-89
2023/12/29 11:14:19;;;;;;;;;10.33;7.33;;;;;;;;4968911;28;28899;-88
2023/12/29 11:16:49;;;;;;;;;3.75;3.75;;;;;;;;5015156;28;28819;-89
2023/12/29 11:22:36;;;;;;;;;4.00;2.33;;;;;;;;5005255;28;27964;-90
2023/12/29 11:25:13;;;;;;;;;11.00;9.67;;;;;;;;5058796;28;29214;-90
2023/12/29 11:27:49;;;;;;;;;9.00;7.00;;;;;;;;5094101;28;28610;-88
2023/12/29 11:30:37;;;;;;;;;5.50;5.00;;;;;;;;5091852;28;27998;-88
2023/12/29 11:33:17;;;;;;;;;;;;;;;;;;;;;
2023/12/29 11:36:23;;;;;;;;;;;;;;;;;;;;;
2023/12/29 11:39:07;;;;;;;;;2.50;2.00;;;;;;;;5042933;28;28429;-88
2023/12/29 11:41:43;;;;;;;;;4.00;2.00;;;;;;;;5090494;28;28541;-87
2023/12/29 11:44:52;;;;;;;;;;;;;;;;;;;;;
2023/12/29 11:47:53;;;;;;;;;4.00;3.00;;;;;;;;5068902;28;28972;-89
2023/12/29 11:50:30;;;;;;;;;3.25;2.50;;;;;;;;5061837;28;28660;-86
2023/12/29 11:53:01;;;;;;;;;0.75;0.75;;;;;;;;5067374;28;28615;-89
2023/12/29 11:55:35;;;;;;;;;3.00;3.00;;;;;;;;5069960;28;28735;-88
2023/12/29 11:58:04;;;;;;;;;8.33;7.33;;;;;;;;5079544;28;29967;-90
2023/12/29 12:00:46;;;;;;;;;15.33;11.00;;;;;;;;5071104;28;28513;-87
2023/12/29 12:03:16;;;;;;;;;3.75;2.75;;;;;;;;5066346;28;28662;-85
2023/12/29 12:05:55;;;;;;;;;4.67;3.67;;;;;;;;5076773;28;28560;-87
2023/12/29 12:08:31;;;;;;;;;3.67;2.33;;;;;;;;5071281;28;28661;-87
2023/12/29 12:10:57;;;;;;;;;1.25;1.25;;;;;;;;5089061;28;29738;-86
2023/12/29 12:13:58;;;;;;;;;7.33;2.33;;;;;;;;5076073;28;28677;-85
2023/12/29 12:16:42;;;;;;;;;5.00;2.33;;;;;;;;5045916;28;28614;-87
2023/12/29 12:19:20;;;;;;;;;2.50;0.75;;;;;;;;5079601;28;28538;-87
2023/12/29 12:22:00;;;;;;;;;2.00;2.00;;;;;;;;5096071;28;28488;-82
2023/12/29 12:24:27;;;;;;;;;1.00;1.00;;;;;;;;5070602;28;28536;-83
2023/12/29 12:26:52;;;;;;;;;2.00;1.00;;;;;;;;5084340;28;28671;-82
2023/12/29 12:29:19;;;;;;;;;0.00;0.00;;;;;;;;5088854;28;28429;-85
2023/12/29 12:31:54;;;;;;;;;1.25;1.00;;;;;;;;5083818;28;28773;-84
2023/12/29 12:34:20;;;;;;;;;3.25;1.75;;;;;;;;5083984;28;28578;-84
2023/12/29 12:37:09;;;;;;;;;;;;;;;;;;;;;
2023/12/29 12:40:03;;;;;;;;;2.75;1.00;;;;;;;;5113491;27;57929;-88
2023/12/29 12:42:31;;;;;;;;;2.00;1.00;;;;;;;;5087328;28;28383;-88
2023/12/29 12:45:03;;;;;;;;;1.75;1.00;;;;;;;;5083640;28;28544;-86
2023/12/29 12:47:42;;;;;;;;;3.00;2.33;;;;;;;;5087769;28;28587;-85
2023/12/29 12:50:12;;;;;;;;;2.33;1.00;;;;;;;;5102289;28;29067;-89
2023/12/29 12:52:37;;;;;;;;;3.33;2.00;;;;;;;;5071128;28;30342;-83
2023/12/29 12:55:03;;;;;;;;;4.00;1.00;;;;;;;;5079818;28;28925;-82
2023/12/29 12:57:29;;;;;;;;;1.00;1.00;;;;;;;;5089136;28;28785;-83
2023/12/29 12:59:55;;;;;;;;;2.50;0.25;;;;;;;;5090769;28;28492;-83
2023/12/29 13:02:21;;;;;;;;;5.00;2.67;;;;;;;;5073787;28;30469;-83
2023/12/29 13:04:47;;;;;;;;;1.00;1.00;;;;;;;;5074511;28;28903;-84
2023/12/29 13:07:15;;;;;;;;;4.33;2.00;;;;;;;;5083680;28;28665;-81
2023/12/29 13:09:40;;;;;;;;;2.00;2.00;;;;;;;;5094422;28;28473;-84
2023/12/29 13:12:12;;;;;;;;;1.00;1.00;;;;;;;;5086670;28;28535;-84
2023/12/29 13:14:37;;;;;;;;;1.00;0.75;;;;;;;;5088016;28;28497;-83
2023/12/29 13:17:06;;;;;;;;;3.33;0.00;;;;;;;;5067280;28;28683;-80
2023/12/29 13:19:33;;;;;;;;;2.00;2.00;;;;;;;;5084523;28;28992;-84
2023/12/29 13:21:59;;;;;;;;;3.00;1.67;;;;;;;;5083011;28;28578;-83
2023/12/29 13:24:25;;;;;;;;;4.00;1.00;;;;;;;;5090834;28;28575;-84
2023/12/29 13:26:54;;;;;;;;;0.00;0.00;;;;;;;;5088507;28;28521;-81
2023/12/29 13:29:21;;;;;;;;;2.00;2.00;;;;;;;;5078818;28;29692;-83
2023/12/29 13:31:49;;;;;;;;;1.00;1.00;;;;;;;;5077424;28;28846;-82
2023/12/29 13:34:21;;;;;;;;;3.00;2.00;;;;;;;;5093112;28;28453;-85
2023/12/29 13:36:55;;;;;;;;;2.00;2.00;;;;;;;;5067828;28;28755;-84
2023/12/29 13:39:25;;;;;;;;;7.67;3.33;;;;;;;;5091735;28;28679;-85
2023/12/29 13:41:50;;;;;;;;;3.00;1.00;;;;;;;;5070926;28;29700;-84
2023/12/29 13:44:16;;;;;;;;;5.67;3.33;;;;;;;;5099454;28;28609;-84
2023/12/29 13:46:41;;;;;;;;;3.67;1.00;;;;;;;;5097510;28;28948;-83
2023/12/29 13:49:07;;;;;;;;;3.00;2.00;;;;;;;;5093233;28;28717;-85
2023/12/29 13:51:33;;;;;;;;;6.00;3.00;;;;;;;;5093830;28;28390;-84
2023/12/29 13:53:59;;;;;;;;;3.00;2.00;;;;;;;;5093955;28;28375;-85
2023/12/29 13:56:24;;;;;;;;;2.33;1.00;;;;;;;;5075019;28;28653;-86
2023/12/29 13:58:53;;;;;;;;;4.67;4.67;;;;;;;;5085956;28;28863;-84
2023/12/29 14:01:18;;;;;;;;;41.33;33.33;;;;;;;;5071466;28;30295;-84
2023/12/29 14:04:45;;;;;;;;;;;;;;;;;;;;;
2023/12/29 14:10:12;;;;;;;;;7.00;5.67;;;;;;;;5057965;28;28450;-85
2023/12/29 14:12:42;;;;;;;;;6.33;3.33;;;;;;;;5092414;28;28797;-86
2023/12/29 14:15:21;;;;;;;;;23.00;19.00;;;;;;;;5098668;28;27792;-87
2023/12/29 14:17:52;;;;;;;;;4.33;2.33;;;;;;;;5082016;28;28727;-83
2023/12/29 14:20:44;;;;;;;;;8.33;4.00;;;;;;;;5088289;28;29149;-82
2023/12/29 14:23:10;;;;;;;;;11.00;8.33;;;;;;;;5075070;28;29217;-85
2023/12/29 14:25:39;;;;;;;;;3.67;2.67;;;;;;;;5091957;28;28595;-84
2023/12/29 14:28:18;;;;;;;;;4.33;3.33;;;;;;;;5089688;28;28794;-87
2023/12/29 14:30:47;;;;;;;;;0.00;0.00;;;;;;;;5078383;28;29672;-88
2023/12/29 14:33:35;;;;;;;;;9.33;6.67;;;;;;;;5101108;28;28628;-85
2023/12/29 14:36:01;;;;;;;;;4.00;2.67;;;;;;;;5096752;28;28580;-86
2023/12/29 14:38:35;;;;;;;;;17.67;12.33;;;;;;;;5087468;28;28499;-86
2023/12/29 14:41:22;;;;;;;;;1.33;1.33;;;;;;;;5071857;28;29138;-86
2023/12/29 14:43:55;;;;;;;;;16.00;12.67;;;;;;;;5087825;28;28608;-87
2023/12/29 14:50:08;;;;;;;;;;;;;;;;;;;;;
2023/12/29 15:31:07;;;;;;;;;2.00;2.00;;;;;;;;4905993;28;28126;-85
2023/12/29 15:36:42;;;;;;;;;3.67;1.67;;;;;;;;4924827;22;29832;-76
2023/12/29 15:39:08;;;;;;;;;1.00;1.00;;;;;;;;5081076;28;29183;-76
2023/12/29 15:41:33;;;;;;;;;1.33;1.33;;;;;;;;5078663;28;29104;-74
2023/12/29 15:43:59;;;;;;;;;4.33;2.33;;;;;;;;5072286;28;28532;-75
2023/12/29 15:46:24;;;;;;;;;6.00;2.67;;;;;;;;5068416;28;28436;-75
2023/12/29 15:48:50;;;;;;;;;3.33;3.00;;;;;;;;5082417;28;28997;-75
2023/12/29 15:51:15;;;;;;;;;1.00;1.00;;;;;;;;5081017;27;28542;-74
2023/12/29 15:53:40;;;;;;;;;3.00;2.00;;;;;;;;5075766;28;29068;-74
2023/12/29 15:56:06;;;;;;;;;3.00;2.67;;;;;;;;5064990;28;28375;-74
2023/12/29 15:58:31;;;;;;;;;5.00;2.67;;;;;;;;5077640;28;28365;-76
2023/12/29 16:00:56;;;;;;;;;3.00;3.00;;;;;;;;5084231;28;28594;-76
2023/12/29 16:03:22;;;;;;;;;4.33;2.33;;;;;;;;5079876;28;29099;-74
2023/12/29 16:05:47;;;;;;;;;1.00;0.00;;;;;;;;5078353;28;28756;-73
2023/12/29 16:08:13;;;;;;;;;5.33;3.00;;;;;;;;5081997;28;28567;-74
2023/12/29 16:10:38;;;;;;;;;2.00;2.00;;;;;;;;5083783;28;28963;-76
2023/12/29 16:13:03;;;;;;;;;2.67;2.00;;;;;;;;5083556;28;28933;-75
2023/12/29 16:15:28;;;;;;;;;2.33;2.33;;;;;;;;5083745;28;28569;-73
2023/12/29 16:17:54;;;;;;;;;6.33;1.67;;;;;;;;5083893;28;28750;-72